• Join FlightAware (Why Join?)
  • Login
  • US Flag 
Rudolph Flight #1: Arrived! 
08:51PM EST


 

Airport Tracker/Info


-or-


 

Live Flight TrackerFlight Track Log ✈ EJA162 ✈ 02-May-2013 ✈ KVNY - KOMA

Flight Track Log - Related Links

Times and Time Zones

All times are in EDT time to prevent confusion due to time zone crossing. See the EJA162 flight status page for this flight to view local times or setup timezone preferences in your user account.

Time Position Orientation Groundspeed Altitude Reporting Facility
EDT Latitude Longitude Course Direction KTS MPH feet Rate Location/Type
12:12PM 34.2420 -118.4950 347° North 182 209 3,100  Level FlightAware
12:12PM 34.2590 -118.5000 346° North 218 251 3,800 3,240 Climbing FlightAware
12:13PM 34.3310 -118.5150 350° North 275 316 7,200 3,900 Climbing FlightAware
12:13PM 34.3570 -118.5200 351° North 273 314 8,700 4,020 Climbing FlightAware
12:14PM 34.4140 -118.4860 26° Northeast 284 327 11,900 2,760 Climbing FlightAware
12:15PM 34.4490 -118.4200 57° Northeast 347 399 13,100 1,920 Climbing FlightAware
12:16PM 34.4870 -118.3470 58° Northeast 375 432 14,700 2,640 Climbing FlightAware
12:16PM 34.5290 -118.2640 58° Northeast 384 442 16,900 2,820 Climbing FlightAware
12:17PM 34.5690 -118.1870 58° Northeast 403 464 18,700 2,640 Climbing FlightAware
12:18PM 34.6140 -118.0980 58° Northeast 420 483 20,700 2,400 Climbing FlightAware
12:18PM 34.6370 -118.0080 73° East 440 506 22,100 2,400 Climbing FlightAware
12:19PM 34.6480 -117.9080 82° East 444 511 23,900 2,040 Climbing FlightAware
12:20PM 34.6610 -117.7950 82° East 458 527 25,000 900 Climbing FlightAware
12:21PM 34.6810 -117.6990 76° East 458 527 25,200 1,200 Climbing FlightAware
12:21PM 34.7070 -117.5970 73° East 466 536 26,600 2,280 Climbing FlightAware
12:22PM 34.7370 -117.4780 73° East 474 545 28,500 2,220 Climbing FlightAware
12:23PM 34.7630 -117.3770 73° East 481 554 29,800 1,920 Climbing FlightAware
12:23PM 34.7940 -117.2550 73° East 488 562 31,300 2,040 Climbing FlightAware
12:24PM 34.8200 -117.1520 73° East 489 563 32,700 2,160 Climbing FlightAware
12:25PM 34.8470 -117.0450 73° East 490 564 34,200 2,280 Climbing FlightAware
12:25PM 34.8760 -116.9350 72° East 483 556 36,000 1,620 Climbing FlightAware
12:26PM 34.9140 -116.8450 63° Northeast 479 551 36,500 2,160 Climbing FlightAware
12:27PM 34.9850 -116.7530 47° Northeast 39,100 2,820 Climbing FlightAware
12:28PM 35.0420 -116.6720 49° Northeast 454 522 40,500 1,320 Climbing FlightAware
12:28PM 35.1040 -116.5830 50° Northeast 474 545 41,000 300 Climbing FlightAware
12:29PM 35.1590 -116.5050 49° Northeast 485 558 41,000  Level FlightAware
12:30PM 35.2220 -116.4150 49° Northeast 483 556 41,000  Level FlightAware
12:30PM 35.2800 -116.3300 50° Northeast 486 559 41,000  Level FlightAware
12:31PM 35.3290 -116.2600 49° Northeast 483 556 41,000  Level FlightAware
12:32PM 35.4100 -116.1420 50° Northeast 480 552 41,000  Level FlightAware
12:32PM 35.4660 -116.0620 49° Northeast 477 549 41,000  Level FlightAware
12:33PM 35.5210 -115.9840 49° Northeast 476 548 41,000  Level FlightAware
12:34PM 35.5870 -115.8860 50° Northeast 477 549 41,000  Level FlightAware
12:35PM 35.6420 -115.8050 50° Northeast 475 547 41,000  Level FlightAware
12:35PM 35.7010 -115.7190 50° Northeast 479 551 41,000  Level FlightAware
12:36PM 35.7650 -115.6250 50° Northeast 481 554 41,000  Level FlightAware
12:37PM 35.8230 -115.5400 50° Northeast 487 560 41,000  Level FlightAware
12:37PM 35.8810 -115.4540 50° Northeast 481 554 41,000  Level FlightAware
12:38PM 35.9380 -115.3700 50° Northeast 485 558 41,000  Level FlightAware
12:39PM 36.0090 -115.2650 50° Northeast 484 557 41,000  Level FlightAware
12:39PM 36.0650 -115.1780 51° Northeast 493 567 41,000  Level FlightAware
12:40PM 36.1060 -115.0730 64° Northeast 503 579 41,000  Level FlightAware
12:41PM 36.1390 -114.9680 69° East 503 579 41,000  Level FlightAware
12:42PM 36.1760 -114.8490 69° East 501 577 41,000  Level FlightAware
12:42PM 36.2080 -114.7440 69° East 503 579 41,000  Level FlightAware
12:43PM 36.2470 -114.6170 69° East 507 583 41,000  Level FlightAware
12:44PM 36.2790 -114.5110 69° East 506 582 41,000  Level FlightAware
12:44PM 36.3150 -114.3920 69° East 505 581 41,000  Level FlightAware
12:45PM 36.3480 -114.2840 69° East 503 579 41,000  Level FlightAware
12:46PM 36.3790 -114.1800 70° East 503 579 41,000  Level FlightAware
12:46PM 36.4170 -114.0510 70° East 503 579 41,000  Level FlightAware
12:47PM 36.4490 -113.9450 69° East 507 583 41,000  Level FlightAware
12:48PM 36.4850 -113.8230 70° East 508 585 41,000  Level FlightAware
12:49PM 36.5190 -113.7100 69° East 509 586 41,000  Level FlightAware
12:49PM 36.5500 -113.6030 70° East 507 583 41,000  Level FlightAware
12:50PM 36.5870 -113.4780 70° East 508 585 41,000  Level FlightAware
12:51PM 36.6180 -113.3710 70° East 509 586 41,000  Level FlightAware
12:51PM 36.6540 -113.2470 70° East 508 585 41,000  Level FlightAware
12:52PM 36.6860 -113.1350 70° East 510 587 41,000  Level FlightAware
12:53PM 36.7180 -113.0260 70° East 511 588 41,000  Level FlightAware
12:53PM 36.7540 -112.8990 70° East 509 586 41,000  Level FlightAware
12:54PM 36.7860 -112.7880 70° East 510 587 41,000  Level FlightAware
12:55PM 36.8200 -112.6690 70° East 509 586 41,000  Level FlightAware
12:56PM 36.8520 -112.5560 70° East 512 589 41,000  Level FlightAware
12:56PM 36.8880 -112.4290 70° East 506 582 41,000  Level FlightAware
12:57PM 36.9080 -112.3560 71° East 507 583 41,000  Level FlightAware
12:58PM 36.9410 -112.2430 70° East 507 583 41,000  Level FlightAware
12:58PM 36.9750 -112.1260 70° East 507 583 41,000  Level FlightAware
12:59PM 37.0020 -112.0320 70° East 507 583 41,000  Level FlightAware
01:00PM 37.0300 -111.9380 70° East 507 583 41,000  Level FlightAware
01:00PM 37.0570 -111.8440 70° East 507 583 41,000  Level FlightAware
01:01PM 37.0840 -111.7500 70° East 507 583 41,000  Level FlightAware
01:02PM 37.1180 -111.6330 70° East 507 583 41,000  Level FlightAware
01:03PM 37.1460 -111.5390 69° East 507 583 41,000  Level FlightAware
01:03PM 37.1730 -111.4450 70° East 507 583 41,000  Level FlightAware
01:04PM 37.2330 -111.1750 74° East 508 585 41,000  Level FlightAware
01:05PM 37.2590 -111.0800 71° East 508 585 41,000  Level FlightAware
01:05PM 37.2910 -110.9620 71° East 508 585 41,000  Level FlightAware
01:06PM 37.3170 -110.8670 71° East 508 585 41,000  Level FlightAware
01:07PM 37.3430 -110.7720 71° East 508 585 41,000  Level FlightAware
01:07PM 37.3690 -110.6770 71° East 508 585 41,000  Level FlightAware
01:08PM 37.3950 -110.5820 71° East 508 585 41,000  Level FlightAware
01:09PM 37.4280 -110.4630 71° East 508 585 41,000  Level FlightAware
01:10PM 37.4540 -110.3680 71° East 508 585 41,000  Level FlightAware
01:10PM 37.4800 -110.2720 71° East 508 585 41,000  Level FlightAware
01:11PM 37.5060 -110.1770 71° East 508 585 41,000  Level FlightAware
01:12PM 37.5320 -110.0820 71° East 508 585 41,000  Level FlightAware
01:12PM 37.5640 -109.9630 71° East 508 585 41,000  Level FlightAware
01:13PM 37.5900 -109.8670 71° East 508 585 41,000  Level FlightAware
01:14PM 37.6592 -109.5339 71° East 518 596 41,000  Level Denver Center
01:15PM 37.7006 -109.3697 72° East 514 592 41,000  Level Denver Center
01:16PM 37.7486 -109.1772 72° East 514 592 41,000  Level Denver Center
01:17PM 37.7881 -109.0150 73° East 507 583 41,000  Level Denver Center
01:23PM 38.1180 -108.0370 73° East 512 589 41,000  Level FlightAware
01:23PM 38.1630 -107.9060 66° East 513 590 41,000  Level FlightAware
01:24PM 38.2030 -107.7870 67° East 515 593 41,000  Level FlightAware
01:25PM 38.2430 -107.6680 67° East 518 596 41,000  Level FlightAware
01:25PM 38.2750 -107.5730 67° East 513 590 41,000  Level FlightAware
01:26PM 38.3210 -107.4360 67° East 508 585 41,000  Level FlightAware
01:27PM 38.3580 -107.3250 67° East 506 582 41,000  Level FlightAware
01:28PM 38.4000 -107.1990 67° East 510 587 41,000  Level FlightAware
01:28PM 38.4254 -107.1210 67° East 512 589 41,000  Level FlightAware ADS-B
01:28PM 38.4419 -107.0700 68° East 514 592 41,000  Level FlightAware ADS-B
01:29PM 38.4550 -107.0200 71° East 516 594 41,000  Level FlightAware ADS-B
01:29PM 38.4790 -106.9040 75° East 514 592 41,000  Level FlightAware ADS-B
01:30PM 38.4967 -106.8160 76° East 520 598 41,000  Level FlightAware ADS-B
01:30PM 38.5171 -106.7130 76° East 519 597 41,000  Level FlightAware ADS-B
01:31PM 38.5392 -106.6010 76° East 522 601 41,000  Level FlightAware ADS-B
01:31PM 38.5576 -106.5070 76° East 520 598 41,000  Level FlightAware ADS-B
01:32PM 38.5811 -106.3860 76° East 519 597 41,000  Level FlightAware ADS-B
01:33PM 38.6016 -106.2800 76° East 516 594 41,000  Level FlightAware ADS-B
01:33PM 38.6216 -106.1770 76° East 516 594 41,000  Level FlightAware ADS-B
01:34PM 38.6392 -106.0850 76° East 517 595 41,000  Level FlightAware ADS-B
01:34PM 38.6566 -105.9930 76° East 515 593 41,000  Level FlightAware ADS-B
01:35PM 38.6739 -105.9020 76° East 515 593 41,000  Level FlightAware ADS-B
01:35PM 38.6911 -105.8120 76° East 517 595 41,000  Level FlightAware ADS-B
01:36PM 38.7083 -105.7200 76° East 516 594 41,000  Level FlightAware ADS-B
01:36PM 38.7251 -105.6300 77° East 513 590 41,000  Level FlightAware ADS-B
01:37PM 38.7417 -105.5410 77° East 514 592 41,000  Level FlightAware ADS-B
01:37PM 38.7584 -105.4510 77° East 513 590 41,000  Level FlightAware ADS-B
01:38PM 38.7755 -105.3590 77° East 510 587 41,000  Level FlightAware ADS-B
01:38PM 38.7920 -105.2690 77° East 514 592 41,000  Level FlightAware ADS-B
01:39PM 38.8085 -105.1790 77° East 514 592 41,000  Level FlightAware ADS-B
01:39PM 38.8249 -105.0890 77° East 508 585 41,000  Level FlightAware ADS-B
01:40PM 38.8410 -105.0000 77° East 507 583 41,000  Level FlightAware ADS-B
01:40PM 38.8569 -104.9110 77° East 510 587 41,000  Level FlightAware ADS-B
01:41PM 38.8739 -104.8170 77° East 514 592 41,000  Level FlightAware ADS-B
01:42PM 38.8901 -104.7270 77° East 517 595 41,000  Level FlightAware ADS-B
01:42PM 38.9060 -104.6370 77° East 519 597 41,000  Level FlightAware ADS-B
01:43PM 38.9227 -104.5430 77° East 520 598 41,000  Level FlightAware ADS-B
01:43PM 38.9387 -104.4520 77° East 519 597 41,000  Level FlightAware ADS-B
01:44PM 38.9546 -104.3610 77° East 521 600 41,000  Level FlightAware ADS-B
01:44PM 38.9708 -104.2680 77° East 524 603 41,000  Level FlightAware ADS-B
01:45PM 38.9868 -104.1760 77° East 523 602 41,000  Level FlightAware ADS-B
01:45PM 39.0027 -104.0840 77° East 522 601 41,000  Level FlightAware ADS-B
01:46PM 39.0185 -103.9920 78° East 521 600 41,000  Level FlightAware ADS-B
01:46PM 39.0347 -103.8970 78° East 519 597 41,000  Level FlightAware ADS-B
01:47PM 39.0500 -103.8070 78° East 519 597 41,000  Level FlightAware ADS-B
01:47PM 39.0653 -103.7170 78° East 521 600 41,000  Level FlightAware ADS-B
01:48PM 39.0809 -103.6240 78° East 523 602 41,000  Level FlightAware ADS-B
01:48PM 39.0962 -103.5330 78° East 526 605 41,000  Level FlightAware ADS-B
01:49PM 39.1114 -103.4410 78° East 523 602 41,000  Level FlightAware ADS-B
01:49PM 39.1266 -103.3500 78° East 525 604 41,000  Level FlightAware ADS-B
01:50PM 39.1419 -103.2570 78° East 528 608 41,000  Level FlightAware ADS-B
01:50PM 39.1585 -103.1560 78° East 526 605 41,000  Level FlightAware ADS-B
01:51PM 39.1739 -103.0610 78° East 524 603 41,000  Level FlightAware ADS-B
01:51PM 39.1888 -102.9700 78° East 527 606 41,000  Level FlightAware ADS-B
01:52PM 39.2038 -102.8770 78° East 529 609 41,000  Level FlightAware ADS-B
01:52PM 39.2191 -102.7820 78° East 526 605 41,000  Level FlightAware ADS-B
01:53PM 39.2339 -102.6890 78° East 525 604 41,000  Level FlightAware ADS-B
01:53PM 39.2485 -102.5970 78° East 529 609 41,000  Level FlightAware ADS-B
01:54PM 39.2631 -102.5050 78° East 530 610 41,000  Level FlightAware ADS-B
01:54PM 39.2780 -102.4100 79° East 530 610 41,000  Level FlightAware ADS-B
01:55PM 39.2928 -102.3150 79° East 528 608 41,000  Level FlightAware ADS-B
01:55PM 39.2988 -102.2790 78° East 528 608 41,000  Level FlightAware ADS-B
01:55PM 39.3054 -102.2490 74° East 527 606 41,000  Level FlightAware ADS-B
01:55PM 39.3203 -102.1990 69° East 525 604 41,000  Level FlightAware ADS-B
01:56PM 39.3543 -102.1130 63° Northeast 522 601 41,000  Level FlightAware ADS-B
01:56PM 39.3906 -102.0330 60° Northeast 521 600 41,000  Level FlightAware ADS-B
01:57PM 39.4272 -101.9520 60° Northeast 523 602 41,000  Level FlightAware ADS-B
01:57PM 39.4669 -101.8640 60° Northeast 526 605 41,000  Level FlightAware ADS-B
01:58PM 39.5036 -101.7830 60° Northeast 525 604 41,000  Level FlightAware ADS-B
01:58PM 39.5409 -101.7000 60° Northeast 524 603 41,000  Level FlightAware ADS-B
01:59PM 39.5792 -101.6150 60° Northeast 526 605 41,000  Level FlightAware ADS-B
01:59PM 39.6178 -101.5290 60° Northeast 527 606 41,000  Level FlightAware ADS-B
02:00PM 39.6557 -101.4440 60° Northeast 529 609 41,000  Level FlightAware ADS-B
02:01PM 39.6923 -101.3620 60° Northeast 528 608 41,000  Level FlightAware ADS-B
02:01PM 39.7288 -101.2800 60° Northeast 526 605 41,000  Level FlightAware ADS-B
02:02PM 39.7664 -101.1960 60° Northeast 526 605 41,000  Level FlightAware ADS-B
02:02PM 39.8032 -101.1120 60° Northeast 527 606 41,000  Level FlightAware ADS-B
02:03PM 39.8419 -101.0250 60° Northeast 526 605 41,000 -780 Level FlightAware ADS-B
02:03PM 39.8788 -100.9410 60° Northeast 526 605 40,200 -1,500 Descending FlightAware ADS-B
02:03PM 39.8969 -100.8994 60° Northeast 523 602 39,700 -1,920 Descending Denver Center
02:05PM 39.9783 -100.7139 60° Northeast 528 608 37,500 -1,320 Descending Denver Center
02:06PM 40.0475 -100.5539 61° Northeast 531 611 37,000 -300 Descending Denver Center
02:07PM 40.1281 -100.3678 60° Northeast 531 611 37,000  Level Denver Center
02:08PM 40.1975 -100.2075 60° Northeast 531 611 37,000  Level Denver Center
02:09PM 40.2761 -100.0211 61° Northeast 526 605 37,000  Level Denver Center
02:10PM 40.3422 -99.8697 60° Northeast 531 611 37,000 -720 Level Denver Center
02:11PM 40.4286 -99.6642 61° Northeast 535 616 35,500 -960 Descending Denver Center
02:12PM 40.5008 -99.4903 61° Northeast 542 624 35,000 -300 Descending Denver Center
02:13PM 40.5733 -99.3169 61° Northeast 542 624 35,000  Level Denver Center
02:14PM 40.6461 -99.1436 61° Northeast 544 626 35,000  Level Denver Center
02:14PM 40.6892 -99.0394 61° Northeast 544 626 35,000  Level Minneapolis Center
02:15PM 40.7569 -98.8747 61° Northeast 545 627 35,000  Level Minneapolis Center
02:16PM 40.8297 -98.6989 61° Northeast 546 628 35,000  Level Minneapolis Center
02:17PM 40.9022 -98.5192 62° Northeast 552 635 35,000 -360 Level Minneapolis Center
02:18PM 40.9878 -98.3008 63° Northeast 549 632 34,300 -1,260 Descending Minneapolis Center
02:20PM 41.0375 -98.1153 70° East 538 619 32,400 -2,220 Descending Minneapolis Center
02:21PM 41.0850 -97.9367 71° East 524 603 29,800 -2,400 Descending Minneapolis Center
02:22PM 41.1303 -97.7686 70° East 504 580 27,600 -2,100 Descending Minneapolis Center
02:23PM 41.1736 -97.6039 71° East 485 558 25,500 -2,040 Descending Minneapolis Center
02:24PM 41.2161 -97.4397 71° East 477 549 23,400 -2,040 Descending Minneapolis Center
02:25PM 41.2572 -97.2825 71° East 466 536 21,400 -2,400 Descending Minneapolis Center
02:26PM 41.2911 -97.0983 76° East 432 497 18,500 -2,040 Descending Minneapolis Center
02:26PM 41.3169 -96.9989 71° East 411 473 17,800 -1,200 Descending Minneapolis Center
02:27PM 41.3425 -96.9522 54° Northeast 434 499 17,300 -1,740 Descending Minneapolis Center
02:27PM 41.3503 -96.8539 84° East 382 440 16,100 -1,260 Descending Minneapolis Center
02:28PM 41.3586 -96.8147 74° East 412 474 16,000 -1,140 Descending Minneapolis Center
02:28PM 41.3317 -96.7144 110° East 384 442 15,000 -1,500 Descending Minneapolis Center
02:29PM 41.3350 -96.6783 83° East 389 448 14,500 -2,040 Descending Minneapolis Center
02:29PM 41.3092 -96.5808 109° East 370 426 13,000 -1,800 Descending Minneapolis Center
02:30PM 41.3125 -96.5456 83° East 374 430 12,700 -900 Descending Minneapolis Center
02:30PM 41.2894 -96.4611 110° East 289 333 12,100 -1,020 Descending Minneapolis Center
02:31PM 41.2933 -96.4383 77° East 314 361 11,700 -1,980 Descending Minneapolis Center
02:31PM 41.2728 -96.3603 109° East 285 328 10,100 -2,280 Descending Minneapolis Center
02:32PM 41.2722 -96.3156 91° East 288 331 9,400 -1,860 Descending Minneapolis Center
02:33PM 41.2553 -96.2486 109° East 280 322 8,100 -1,860 Descending Minneapolis Center
02:33PM 41.2542 -96.2183 93° East 280 322 7,500 -1,800 Descending Minneapolis Center
02:34PM 41.2389 -96.1533 107° East 270 311 6,300 -1,380 Descending Minneapolis Center
02:34PM 41.2369 -96.1233 95° East 274 315 6,100 -600 Descending Minneapolis Center
02:35PM 41.2253 -96.0744 108° East 228 262 5,800 -540 Descending Minneapolis Center
02:35PM 41.2222 -96.0444 98° East 242 278 5,600 -1,200 Descending Minneapolis Center
02:36PM 41.2122 -96.0011 107° East 196 226 4,600 -1,500 Descending Minneapolis Center
02:36PM 41.2086 -95.9719 99° East 218 251 4,100 -1,200 Descending Minneapolis Center
02:37PM 41.2011 -95.9275 103° East 195 224 3,400 -1,260 Descending Minneapolis Center
02:37PM 41.2011 -95.8897 90° East 198 228 2,800 -900 Descending Minneapolis Center
02:38PM 41.2119 -95.8683 56° Northeast 157 181 2,500 -300 Descending Minneapolis Center
02:38PM 41.2236 -95.8431 58° Northeast 169 194 2,500 -300 Level Minneapolis Center
02:39PM 41.2439 -95.8450 356° North 130 150 2,200 -540 Descending Minneapolis Center
02:39PM 41.2592 -95.8497 347° North 143 165 2,000 -600 Descending Minneapolis Center
02:40PM 41.2725 -95.8667 316° Northwest 106 122 1,600 -600 Descending Minneapolis Center
02:40PM 41.2833 -95.8714 342° North 122 140 1,400 -420 Descending Minneapolis Center
02:41PM 41.3083 -95.8944 325° Northwest 114 131 1,000 -420 Descending Minneapolis Center